createdAt,value
2019-01-31T00:09:21.795Z,4.20
2019-01-31T00:12:08.338Z,3.43
2019-01-31T00:17:49.107Z,3.30
2019-01-31T00:20:35.673Z,4.37
2019-01-31T00:29:23.206Z,3.20
2019-01-31T00:32:09.860Z,3.43
2019-01-31T00:40:57.738Z,3.50
2019-01-31T00:55:33.740Z,2.97
2019-01-31T01:04:21.842Z,2.37
2019-01-31T01:07:08.390Z,2.67
2019-01-31T01:12:49.040Z,2.30
2019-01-31T01:15:35.831Z,2.57
2019-01-31T01:21:16.551Z,3.00
2019-01-31T01:24:03.187Z,3.10
2019-01-31T01:26:50.010Z,3.03
2019-01-31T01:29:36.558Z,3.13
2019-01-31T01:32:23.118Z,3.10
2019-01-31T01:35:09.666Z,3.20
2019-01-31T01:37:56.243Z,3.20
2019-01-31T01:40:42.787Z,3.13
2019-01-31T01:49:16.907Z,2.83
2019-01-31T01:55:10.722Z,3.13
2019-01-31T02:01:04.562Z,2.90
2019-01-31T02:06:58.607Z,3.20
2019-01-31T02:09:45.169Z,2.77
2019-01-31T02:21:13.586Z,3.40
2019-01-31T02:30:00.839Z,2.80
2019-01-31T02:35:41.414Z,3.03
2019-01-31T02:38:10.145Z,2.80
2019-01-31T02:40:45.010Z,3.07
2019-01-31T02:43:16.647Z,3.57
2019-01-31T02:46:03.468Z,2.87
2019-01-31T02:48:50.012Z,2.80
2019-01-31T02:51:36.582Z,2.87
2019-01-31T02:54:30.122Z,2.87
2019-01-31T02:57:16.694Z,2.90
2019-01-31T03:00:03.242Z,2.90
2019-01-31T03:05:43.399Z,2.90
2019-01-31T03:08:29.952Z,3.40
2019-01-31T03:11:09.009Z,3.07
2019-01-31T03:13:55.545Z,3.30
2019-01-31T03:16:42.115Z,2.87
2019-01-31T03:19:28.690Z,3.20
2019-01-31T03:25:22.491Z,2.90
2019-01-31T03:28:09.279Z,3.30
2019-01-31T03:30:56.083Z,3.30
2019-01-31T03:33:42.647Z,3.27
2019-01-31T03:39:36.698Z,3.37
2019-01-31T03:42:23.274Z,3.57
2019-01-31T03:48:17.121Z,3.33
2019-01-31T03:53:57.710Z,3.57
2019-01-31T04:02:45.802Z,3.73
2019-01-31T04:05:32.379Z,3.80
2019-01-31T04:07:59.910Z,3.40
2019-01-31T04:10:27.119Z,3.83
2019-01-31T04:12:54.355Z,4.07
2019-01-31T04:15:21.586Z,3.90
2019-01-31T04:20:23.315Z,3.43
2019-01-31T04:22:50.514Z,3.70
2019-01-31T04:25:17.774Z,3.77
2019-01-31T04:27:45.005Z,4.23
2019-01-31T04:33:19.739Z,3.77
2019-01-31T04:35:46.939Z,4.07
2019-01-31T04:38:14.439Z,4.50
2019-01-31T04:40:41.894Z,4.17
2019-01-31T04:43:09.119Z,4.20
2019-01-31T04:45:36.358Z,4.33
2019-01-31T04:48:03.558Z,4.57
2019-01-31T04:50:31.105Z,4.27
2019-01-31T04:52:58.383Z,4.10
2019-01-31T04:55:25.608Z,4.30
2019-01-31T04:57:53.165Z,4.30
2019-01-31T05:00:20.626Z,4.50
2019-01-31T05:02:47.972Z,4.87
2019-01-31T05:05:15.612Z,4.20
2019-01-31T05:07:42.854Z,4.43
2019-01-31T05:13:03.357Z,4.33
2019-01-31T05:15:30.594Z,4.20
2019-01-31T05:17:57.809Z,4.23
2019-01-31T05:20:25.018Z,4.70
2019-01-31T05:22:52.255Z,4.27
2019-01-31T05:25:19.457Z,4.93
2019-01-31T05:27:46.709Z,4.53
2019-01-31T05:33:07.559Z,4.57
2019-01-31T05:35:34.756Z,5.07
2019-01-31T05:38:02.230Z,5.17
2019-01-31T05:40:29.446Z,6.57
2019-01-31T05:42:56.672Z,5.80
2019-01-31T05:45:24.190Z,6.17
2019-01-31T05:47:51.750Z,6.53
2019-01-31T05:50:19.216Z,6.57
2019-01-31T05:52:46.450Z,5.93
2019-01-31T05:58:07.125Z,7.87
2019-01-31T06:03:28.438Z,7.60
2019-01-31T06:05:55.970Z,6.87
2019-01-31T06:08:42.783Z,6.73
2019-01-31T06:11:09.995Z,6.73
2019-01-31T06:13:37.226Z,7.93
2019-01-31T06:16:06.756Z,6.37
2019-01-31T06:18:33.458Z,7.50
2019-01-31T06:21:00.687Z,7.23
2019-01-31T06:23:27.930Z,7.00
2019-01-31T06:25:55.146Z,7.07
2019-01-31T06:28:22.744Z,7.77
2019-01-31T06:30:49.954Z,7.13
2019-01-31T06:33:17.173Z,7.10
2019-01-31T06:35:44.398Z,7.50
2019-01-31T06:38:11.934Z,6.70
2019-01-31T06:40:39.141Z,6.33
2019-01-31T06:43:06.646Z,6.47
2019-01-31T06:45:33.858Z,6.90
2019-01-31T06:48:01.356Z,7.00
2019-01-31T06:50:28.814Z,6.40
2019-01-31T06:52:58.163Z,5.57
2019-01-31T06:55:24.994Z,6.20
2019-01-31T06:57:52.205Z,7.30
2019-01-31T07:03:13.362Z,5.70
2019-01-31T07:05:40.654Z,6.10
2019-01-31T07:08:07.918Z,6.13
2019-01-31T07:10:35.390Z,6.23
2019-01-31T07:13:02.610Z,7.50
2019-01-31T07:15:29.851Z,7.27
2019-01-31T07:17:57.352Z,7.60
2019-01-31T07:20:24.591Z,7.30
2019-01-31T07:22:52.060Z,7.67
2019-01-31T07:28:13.622Z,7.80
2019-01-31T07:30:40.834Z,8.57
2019-01-31T07:33:08.056Z,7.47
2019-01-31T07:35:35.282Z,7.40
2019-01-31T07:38:02.514Z,8.23
2019-01-31T07:40:29.725Z,8.47
2019-01-31T07:42:56.968Z,7.30
2019-01-31T07:48:17.793Z,6.43
2019-01-31T07:50:45.011Z,7.00
2019-01-31T07:53:12.905Z,7.20
2019-01-31T07:55:41.482Z,7.53
2019-01-31T07:58:08.973Z,7.13
2019-01-31T08:00:36.214Z,6.27
2019-01-31T08:05:56.858Z,6.70
2019-01-31T08:08:24.402Z,6.00
2019-01-31T08:10:51.614Z,5.93
2019-01-31T08:13:19.110Z,6.43
2019-01-31T08:15:46.335Z,6.20
2019-01-31T08:18:13.578Z,6.90
2019-01-31T08:20:41.067Z,6.37
2019-01-31T08:23:08.628Z,6.43
2019-01-31T08:25:35.857Z,6.63
2019-01-31T08:30:56.477Z,6.60
2019-01-31T08:33:23.768Z,6.17
2019-01-31T08:35:51.283Z,5.23
2019-01-31T08:38:18.876Z,6.33
2019-01-31T08:40:46.403Z,6.30
2019-01-31T08:43:13.799Z,5.53
2019-01-31T08:45:41.660Z,6.53
2019-01-31T08:48:09.215Z,5.93
2019-01-31T08:53:32.443Z,5.80
2019-01-31T08:56:00.355Z,6.33
2019-01-31T08:58:28.031Z,5.93
2019-01-31T09:00:55.326Z,5.93
2019-01-31T09:03:23.092Z,5.80
2019-01-31T09:05:50.596Z,6.07
2019-01-31T09:08:18.065Z,6.27
2019-01-31T09:10:45.669Z,6.13
2019-01-31T09:13:13.153Z,7.13
2019-01-31T09:15:40.436Z,7.13
2019-01-31T09:18:07.694Z,6.40
2019-01-31T09:20:54.439Z,6.90
2019-01-31T09:23:41.407Z,7.23
2019-01-31T09:26:28.258Z,7.37
2019-01-31T09:29:15.023Z,6.57
2019-01-31T09:32:01.864Z,6.20
2019-01-31T09:40:49.877Z,7.00
2019-01-31T09:43:36.423Z,7.43
2019-01-31T09:46:23.008Z,6.43
2019-01-31T09:49:09.575Z,6.27
2019-01-31T09:51:56.150Z,6.47
2019-01-31T09:57:36.998Z,6.97
2019-01-31T10:00:27.594Z,6.67
2019-01-31T10:03:11.913Z,6.57
2019-01-31T10:05:58.438Z,6.73
2019-01-31T10:08:45.325Z,7.10
2019-01-31T10:11:33.580Z,7.00
2019-01-31T10:14:20.246Z,7.03
2019-01-31T10:17:06.819Z,7.53
2019-01-31T10:25:41.655Z,7.27
2019-01-31T10:28:28.228Z,6.77
2019-01-31T10:34:22.441Z,7.90
2019-01-31T10:37:10.356Z,6.40
2019-01-31T10:39:56.930Z,6.93
2019-01-31T10:42:51.877Z,5.87
2019-01-31T10:45:31.798Z,6.37
2019-01-31T10:48:18.375Z,7.20
2019-01-31T10:51:04.954Z,7.40
2019-01-31T10:56:59.018Z,6.90
2019-01-31T10:59:45.566Z,6.80
2019-01-31T11:02:32.142Z,7.07
2019-01-31T11:05:18.958Z,8.23
2019-01-31T11:10:59.714Z,7.87
2019-01-31T11:13:46.528Z,7.47
2019-01-31T11:22:34.210Z,8.00
2019-01-31T11:25:20.794Z,8.40
2019-01-31T11:28:07.586Z,8.27
2019-01-31T11:30:54.166Z,7.93
2019-01-31T11:33:40.726Z,9.03
2019-01-31T11:36:27.547Z,8.10
2019-01-31T11:42:21.847Z,8.57
2019-01-31T11:45:08.411Z,8.37
2019-01-31T11:47:54.990Z,8.00
2019-01-31T11:50:41.555Z,8.60
2019-01-31T11:53:28.134Z,8.10
2019-01-31T11:56:14.695Z,8.70
2019-01-31T11:59:01.283Z,9.03
2019-01-31T12:04:22.549Z,7.97
2019-01-31T12:06:49.770Z,8.97
2019-01-31T12:12:11.222Z,8.50
2019-01-31T12:14:38.785Z,8.83
2019-01-31T12:17:06.006Z,8.07
2019-01-31T12:19:33.210Z,7.97
2019-01-31T12:22:00.450Z,8.17
2019-01-31T12:24:27.692Z,8.13
2019-01-31T12:26:54.907Z,8.07
2019-01-31T12:29:22.140Z,8.60
2019-01-31T12:31:49.346Z,8.77
2019-01-31T12:34:16.898Z,8.27
2019-01-31T12:36:44.458Z,8.37
2019-01-31T12:39:11.674Z,8.80
2019-01-31T12:41:38.902Z,10.23
2019-01-31T12:44:06.215Z,9.70
2019-01-31T12:46:33.554Z,8.97
2019-01-31T12:49:00.868Z,8.97
2019-01-31T12:51:28.070Z,9.10
2019-01-31T12:53:55.349Z,9.13
2019-01-31T12:56:22.881Z,9.67
2019-01-31T12:58:50.128Z,9.97
2019-01-31T13:01:17.341Z,9.43
2019-01-31T13:03:44.645Z,9.40
2019-01-31T13:06:12.208Z,9.23
2019-01-31T13:08:39.443Z,8.93
2019-01-31T13:14:00.478Z,10.07
2019-01-31T13:16:27.748Z,9.00
2019-01-31T13:18:54.962Z,7.50
2019-01-31T13:21:22.212Z,8.23
2019-01-31T13:23:49.507Z,8.20
2019-01-31T13:26:16.718Z,7.30
2019-01-31T13:28:43.946Z,8.03
2019-01-31T13:31:11.153Z,8.10
2019-01-31T13:33:38.398Z,8.27
2019-01-31T13:38:59.199Z,8.23
2019-01-31T13:41:26.406Z,6.77
2019-01-31T13:43:57.734Z,7.60
2019-01-31T13:46:22.902Z,7.17
2019-01-31T13:48:50.130Z,7.17
2019-01-31T13:51:17.332Z,5.83
2019-01-31T13:53:44.551Z,6.73
2019-01-31T13:56:11.784Z,8.33
2019-01-31T13:58:39.005Z,8.73
2019-01-31T14:01:06.226Z,7.40
2019-01-31T14:03:33.531Z,7.43
2019-01-31T14:06:01.012Z,7.40
2019-01-31T14:08:28.214Z,7.20
2019-01-31T14:10:55.462Z,7.17
2019-01-31T14:13:22.767Z,7.73
2019-01-31T14:15:50.048Z,7.13
2019-01-31T14:18:17.286Z,8.10
2019-01-31T14:20:44.499Z,7.77
2019-01-31T14:23:11.730Z,8.13
2019-01-31T14:25:38.962Z,8.33
2019-01-31T14:28:06.438Z,8.13
2019-01-31T14:36:02.783Z,8.17
2019-01-31T14:38:30.608Z,8.30
2019-01-31T14:40:58.162Z,8.43
2019-01-31T14:43:25.397Z,8.43
2019-01-31T14:45:52.634Z,8.23
2019-01-31T14:48:20.118Z,8.83
2019-01-31T14:50:47.354Z,8.87
2019-01-31T14:53:14.670Z,8.47
2019-01-31T14:55:41.877Z,8.23
2019-01-31T15:01:03.232Z,9.40
2019-01-31T15:03:51.638Z,9.47
2019-01-31T15:06:19.006Z,9.10
2019-01-31T15:08:46.230Z,8.40
2019-01-31T15:11:13.730Z,8.77
2019-01-31T15:13:40.966Z,9.17
2019-01-31T15:16:08.266Z,9.23
2019-01-31T15:18:35.475Z,9.00
2019-01-31T15:21:03.025Z,8.40
2019-01-31T15:23:30.246Z,8.97
2019-01-31T15:25:57.479Z,9.10
2019-01-31T15:28:24.723Z,9.70
2019-01-31T15:30:52.361Z,9.37
2019-01-31T15:33:19.903Z,8.93
2019-01-31T15:35:47.128Z,9.67
2019-01-31T15:38:14.353Z,9.57
2019-01-31T15:43:48.834Z,9.40
2019-01-31T15:46:17.880Z,9.37
2019-01-31T15:48:45.010Z,9.77
2019-01-31T15:51:12.259Z,10.10
2019-01-31T15:53:39.477Z,9.30
2019-01-31T15:59:13.953Z,10.00
2019-01-31T16:01:41.193Z,13.10
2019-01-31T16:04:08.730Z,11.17
2019-01-31T16:06:36.302Z,11.13
2019-01-31T16:11:59.721Z,10.87
2019-01-31T16:14:26.622Z,11.00
2019-01-31T16:16:54.170Z,11.57
2019-01-31T16:19:21.393Z,12.00
2019-01-31T16:21:48.634Z,12.40
2019-01-31T16:24:15.846Z,12.57
2019-01-31T16:26:43.394Z,11.63
2019-01-31T16:29:10.946Z,12.27
2019-01-31T16:31:38.241Z,13.60
2019-01-31T16:34:05.854Z,27.23
2019-01-31T16:36:33.410Z,17.13
2019-01-31T16:39:00.870Z,14.00
2019-01-31T16:41:28.113Z,15.13
2019-01-31T16:43:55.677Z,15.40
2019-01-31T16:46:22.890Z,14.67
2019-01-31T16:48:50.131Z,14.37
2019-01-31T16:54:05.442Z,13.47
2019-01-31T16:56:32.678Z,14.53
2019-01-31T16:58:59.890Z,13.60
2019-01-31T17:01:27.125Z,12.90
2019-01-31T17:03:54.370Z,13.10
2019-01-31T17:06:21.588Z,12.37
2019-01-31T17:08:49.083Z,13.67
2019-01-31T17:11:16.302Z,13.00
2019-01-31T17:13:43.534Z,12.47
2019-01-31T17:16:11.045Z,11.23
2019-01-31T17:18:38.366Z,11.37
2019-01-31T17:21:05.579Z,12.13
2019-01-31T17:23:32.802Z,11.17
2019-01-31T17:26:00.048Z,11.37
2019-01-31T17:28:27.265Z,10.70
2019-01-31T17:30:54.858Z,12.23
2019-01-31T17:33:41.438Z,12.33
2019-01-31T17:36:08.923Z,11.67
2019-01-31T17:38:36.486Z,12.77
2019-01-31T17:41:04.053Z,11.27
2019-01-31T17:43:31.266Z,10.63
2019-01-31T17:45:58.863Z,10.87
2019-01-31T17:48:26.077Z,10.17
2019-01-31T17:50:53.323Z,10.47
2019-01-31T17:53:20.526Z,9.67
2019-01-31T17:55:48.058Z,10.17
2019-01-31T17:58:15.614Z,9.90
2019-01-31T18:03:50.354Z,14.77
2019-01-31T18:06:18.885Z,9.97
2019-01-31T18:08:46.815Z,10.43
2019-01-31T18:11:14.020Z,9.47
2019-01-31T18:13:41.514Z,9.10
2019-01-31T18:16:08.758Z,10.43
2019-01-31T18:18:36.321Z,9.67
2019-01-31T18:24:10.798Z,8.37
2019-01-31T18:26:38.320Z,9.60
2019-01-31T18:29:05.650Z,9.60
2019-01-31T18:31:33.234Z,12.33
2019-01-31T18:34:00.493Z,8.50
2019-01-31T18:36:27.702Z,7.80
2019-01-31T18:38:57.615Z,7.07
2019-01-31T18:41:23.907Z,7.47
2019-01-31T18:43:53.077Z,7.63
2019-01-31T18:46:20.283Z,8.07
2019-01-31T18:48:47.523Z,7.87
2019-01-31T18:51:16.227Z,7.47
2019-01-31T18:53:43.662Z,7.63
2019-01-31T18:56:11.174Z,6.23
2019-01-31T18:58:38.417Z,6.87
2019-01-31T19:01:05.897Z,7.73
2019-01-31T19:03:34.871Z,6.53
2019-01-31T19:06:02.114Z,6.93
2019-01-31T19:08:29.580Z,7.13
2019-01-31T19:10:56.795Z,7.00
2019-01-31T19:13:24.031Z,7.60
2019-01-31T19:15:51.246Z,6.93
2019-01-31T19:18:18.490Z,14.50
2019-01-31T19:20:46.051Z,7.53
2019-01-31T19:23:13.501Z,8.33
2019-01-31T19:25:41.184Z,7.40
2019-01-31T19:28:08.446Z,6.77
2019-01-31T19:36:03.571Z,7.00
2019-01-31T19:38:30.782Z,6.27
2019-01-31T19:40:58.082Z,8.23
2019-01-31T19:43:25.310Z,7.50
2019-01-31T19:45:52.522Z,7.43
2019-01-31T19:48:19.745Z,7.37
2019-01-31T19:50:47.041Z,6.63
2019-01-31T19:53:14.345Z,6.57
2019-01-31T19:55:41.966Z,7.93
2019-01-31T19:58:09.182Z,7.93
2019-01-31T20:00:36.466Z,6.73
2019-01-31T20:05:57.826Z,7.00
2019-01-31T20:08:25.039Z,7.33
2019-01-31T20:10:52.345Z,6.97
2019-01-31T20:13:19.866Z,6.50
2019-01-31T20:15:47.331Z,7.40
2019-01-31T20:18:14.903Z,7.83
2019-01-31T20:20:42.874Z,9.37
2019-01-31T20:23:11.189Z,6.40
2019-01-31T20:25:38.440Z,7.07
2019-01-31T20:28:05.722Z,7.53
2019-01-31T20:33:27.367Z,6.17
2019-01-31T20:35:54.662Z,6.87
2019-01-31T20:38:21.891Z,7.57
2019-01-31T20:40:49.121Z,6.47
2019-01-31T20:43:16.362Z,6.70
2019-01-31T20:45:43.640Z,6.43
2019-01-31T20:48:11.187Z,8.00
2019-01-31T20:53:32.219Z,7.03
2019-01-31T20:55:59.480Z,7.07
2019-01-31T21:01:14.814Z,7.30
2019-01-31T21:03:42.177Z,7.30
2019-01-31T21:06:09.767Z,7.97
2019-01-31T21:08:37.044Z,7.87
2019-01-31T21:11:25.097Z,6.73
2019-01-31T21:13:52.310Z,6.87
2019-01-31T21:16:19.613Z,7.30
2019-01-31T21:18:46.846Z,7.93
2019-01-31T21:21:14.050Z,7.47
2019-01-31T21:23:41.282Z,6.90
2019-01-31T21:26:08.494Z,7.67
2019-01-31T21:28:35.726Z,7.37
2019-01-31T21:31:02.938Z,7.50
2019-01-31T21:33:30.193Z,8.80
2019-01-31T21:35:57.442Z,8.10
2019-01-31T21:38:24.694Z,7.80
2019-01-31T21:40:52.170Z,8.43
2019-01-31T21:43:19.377Z,8.83
2019-01-31T21:45:46.751Z,8.27
2019-01-31T21:48:14.018Z,7.93
2019-01-31T21:50:41.261Z,7.90
2019-01-31T21:56:15.750Z,8.50
2019-01-31T21:58:42.978Z,7.93
2019-01-31T22:01:10.526Z,7.27
2019-01-31T22:03:37.983Z,7.80
2019-01-31T22:06:05.539Z,6.90
2019-01-31T22:08:32.747Z,7.27
2019-01-31T22:11:00.389Z,6.37
2019-01-31T22:13:27.634Z,6.70
2019-01-31T22:15:54.902Z,6.93
2019-01-31T22:18:22.181Z,6.80
2019-01-31T22:20:49.461Z,6.67
2019-01-31T22:23:16.673Z,6.73
2019-01-31T22:25:44.306Z,6.67
2019-01-31T22:28:13.123Z,6.60
2019-01-31T22:30:40.326Z,6.63
2019-01-31T22:33:07.614Z,6.60
2019-01-31T22:35:34.959Z,5.87
2019-01-31T22:38:02.186Z,5.37
2019-01-31T22:40:29.482Z,4.80
2019-01-31T22:42:56.966Z,5.97
2019-01-31T22:48:18.615Z,5.67
2019-01-31T22:50:46.061Z,5.37
2019-01-31T22:53:13.277Z,6.00
2019-01-31T22:55:40.534Z,5.90
2019-01-31T22:58:07.737Z,5.50
2019-01-31T23:01:13.602Z,5.57
2019-01-31T23:03:40.805Z,5.27
2019-01-31T23:09:02.230Z,5.20
2019-01-31T23:11:29.511Z,4.97
2019-01-31T23:13:56.821Z,4.97
2019-01-31T23:16:24.149Z,5.30
2019-01-31T23:18:51.442Z,5.57
2019-01-31T23:21:18.652Z,5.70
2019-01-31T23:23:45.850Z,5.77
2019-01-31T23:26:13.426Z,4.70
2019-01-31T23:28:40.629Z,5.27
2019-01-31T23:31:07.870Z,4.83
2019-01-31T23:33:35.393Z,4.57
2019-01-31T23:36:02.598Z,4.60
2019-01-31T23:38:29.827Z,5.00
2019-01-31T23:40:57.121Z,4.23
2019-01-31T23:43:24.594Z,4.13
2019-01-31T23:45:52.154Z,4.57
2019-01-31T23:48:19.714Z,4.10
2019-01-31T23:50:47.170Z,4.33
2019-01-31T23:53:14.734Z,4.37
2019-01-31T23:55:41.937Z,3.73
2019-01-31T23:58:09.145Z,4.53
